Time;durP1;ratioP1;P1;durP2;ratioP2;P2;SDS_P1;SDS_P2;PMS_P1;PMS_P2;Temp;Humidity;BMP_temperature;BMP_pressure;BME280_temperature;BME280_humidity;BME280_pressure;Samples;Min_cycle;Max_cycle;Signal;HPM_P1;HPM_P2
2023/04/18 00:01:20;;;;;;;43.37;14.60;;;10.40;95.70;;;;;;5069910;28;20475;-62
2023/04/18 00:03:46;;;;;;;23.67;12.57;;;10.40;95.70;;;;;;5056855;28;20786;-61
2023/04/18 00:06:13;;;;;;;26.57;14.10;;;10.40;95.70;;;;;;5049241;28;20481;-61
2023/04/18 00:08:40;;;;;;;29.83;11.87;;;10.30;95.50;;;;;;5073118;28;20553;-61
2023/04/18 00:11:06;;;;;;;20.50;12.07;;;10.30;95.60;;;;;;5070566;28;20474;-61
2023/04/18 00:13:34;;;;;;;29.43;13.57;;;10.50;95.50;;;;;;5049964;28;21257;-62
2023/04/18 00:16:02;;;;;;;29.00;11.10;;;10.20;95.50;;;;;;5056712;28;20471;-62
2023/04/18 00:18:29;;;;;;;27.63;12.90;;;10.10;95.50;;;;;;5058700;28;20549;-61
2023/04/18 00:20:56;;;;;;;30.00;14.37;;;10.00;95.50;;;;;;5055937;28;20535;-61
2023/04/18 00:23:26;;;;;;;28.40;12.07;;;10.00;95.60;;;;;;5072647;28;20485;-61
2023/04/18 00:25:53;;;;;;;23.70;12.63;;;10.00;95.60;;;;;;5033996;28;20561;-62
2023/04/18 00:28:20;;;;;;;26.93;13.30;;;9.90;95.90;;;;;;5071432;28;20838;-61
2023/04/18 00:30:47;;;;;;;27.47;12.00;;;9.80;95.90;;;;;;5060788;28;20489;-62
2023/04/18 00:33:15;;;;;;;29.80;14.20;;;9.80;95.80;;;;;;5037291;28;20478;-61
2023/04/18 00:35:42;;;;;;;26.00;13.63;;;9.80;95.90;;;;;;5064598;28;20478;-61
2023/04/18 00:38:09;;;;;;;31.63;14.60;;;9.70;95.90;;;;;;5068772;28;21091;-62
2023/04/18 00:40:36;;;;;;;18.90;11.90;;;9.60;95.70;;;;;;5073424;28;20830;-61
2023/04/18 00:43:03;;;;;;;24.67;14.40;;;9.60;96.00;;;;;;5056855;28;20507;-61
2023/04/18 00:45:30;;;;;;;27.87;11.87;;;9.50;95.90;;;;;;5051388;28;20486;-61
2023/04/18 00:47:56;;;;;;;30.00;14.50;;;9.50;95.80;;;;;;5057175;28;20467;-61
2023/04/18 00:50:25;;;;;;;27.07;13.50;;;9.50;95.90;;;;;;5074751;28;20482;-61
2023/04/18 00:52:53;;;;;;;35.83;13.23;;;9.40;95.60;;;;;;5070100;28;20482;-61
2023/04/18 00:55:21;;;;;;;29.10;13.17;;;9.40;95.60;;;;;;5069725;28;20516;-61
2023/04/18 00:57:47;;;;;;;50.17;18.80;;;9.40;95.60;;;;;;5057404;28;20494;-61
2023/04/18 01:00:15;;;;;;;39.47;13.23;;;9.40;95.60;;;;;;5029164;28;20486;-61
2023/04/18 01:02:42;;;;;;;23.80;12.27;;;9.30;95.50;;;;;;5052832;28;20574;-61
2023/04/18 01:05:08;;;;;;;20.27;11.57;;;9.20;95.50;;;;;;5045219;28;20472;-61
2023/04/18 01:07:39;;;;;;;40.23;15.80;;;9.20;95.70;;;;;;5035913;28;20951;-61
2023/04/18 01:10:07;;;;;;;20.73;12.90;;;9.10;95.70;;;;;;5037728;28;20537;-61
2023/04/18 01:12:36;;;;;;;25.30;13.87;;;9.10;95.70;;;;;;5026139;28;20585;-61
2023/04/18 01:15:03;;;;;;;19.20;12.03;;;9.10;95.70;;;;;;5050395;28;20851;-61
2023/04/18 01:17:30;;;;;;;42.40;16.63;;;9.00;95.60;;;;;;5056231;28;20474;-61
2023/04/18 01:19:57;;;;;;;30.87;13.53;;;9.00;95.60;;;;;;5043722;28;20835;-61
2023/04/18 01:22:24;;;;;;;24.33;12.87;;;9.00;95.70;;;;;;5046687;28;20661;-61
2023/04/18 01:24:52;;;;;;;36.67;15.93;;;8.90;95.70;;;;;;5028459;28;20494;-61
2023/04/18 01:27:18;;;;;;;34.77;15.30;;;8.90;96.00;;;;;;5038829;28;20566;-62
2023/04/18 01:29:45;;;;;;;36.83;13.20;;;8.90;95.70;;;;;;5055456;28;20466;-61
2023/04/18 01:32:12;;;;;;;37.07;15.40;;;9.00;95.70;;;;;;5041135;28;20487;-61
2023/04/18 01:34:39;;;;;;;37.97;13.17;;;8.90;95.70;;;;;;5057515;28;20775;-61
2023/04/18 01:37:05;;;;;;;34.70;15.80;;;8.90;95.80;;;;;;5066216;28;20466;-61
2023/04/18 01:39:32;;;;;;;30.33;12.07;;;8.90;95.70;;;;;;5056376;28;20489;-61
2023/04/18 01:42:01;;;;;;;28.60;12.07;;;8.80;95.70;;;;;;5073430;28;20482;-62
2023/04/18 01:44:27;;;;;;;26.23;14.10;;;8.70;95.50;;;;;;5063501;28;20495;-61
2023/04/18 01:46:54;;;;;;;28.70;13.17;;;8.70;95.50;;;;;;5073344;28;21041;-61
2023/04/18 01:49:21;;;;;;;32.23;12.70;;;8.70;95.60;;;;;;5071006;28;20482;-61
2023/04/18 01:51:47;;;;;;;21.50;12.60;;;8.60;95.50;;;;;;5054972;28;20483;-61
2023/04/18 01:54:14;;;;;;;32.30;13.73;;;8.60;95.50;;;;;;5059297;28;20486;-61
2023/04/18 01:56:41;;;;;;;28.50;13.00;;;8.50;95.40;;;;;;5066109;28;20584;-61
2023/04/18 01:59:09;;;;;;;21.73;12.67;;;8.50;95.50;;;;;;5063812;28;20471;-62
2023/04/18 02:01:36;;;;;;;27.87;14.47;;;8.40;95.40;;;;;;5078111;28;20478;-62
2023/04/18 02:04:02;;;;;;;27.33;14.00;;;8.40;95.60;;;;;;5077765;28;21056;-61
2023/04/18 02:06:29;;;;;;;29.60;15.20;;;8.40;95.70;;;;;;5079755;28;20482;-61
2023/04/18 02:08:56;;;;;;;25.10;13.40;;;8.30;95.70;;;;;;5076894;28;20601;-61
2023/04/18 02:11:22;;;;;;;26.70;13.23;;;8.30;95.70;;;;;;5081442;28;20482;-61
2023/04/18 02:13:49;;;;;;;21.70;12.80;;;8.30;95.60;;;;;;5082966;28;20521;-61
2023/04/18 02:16:17;;;;;;;30.03;15.47;;;8.30;95.60;;;;;;5071862;28;20478;-61
2023/04/18 02:18:44;;;;;;;26.43;13.87;;;9.00;95.80;;;;;;5080952;28;20489;-61
2023/04/18 02:21:11;;;;;;;18.50;12.20;;;8.20;95.50;;;;;;5055073;28;21108;-61
2023/04/18 02:23:37;;;;;;;23.73;12.13;;;8.20;95.30;;;;;;5070636;28;20908;-61
2023/04/18 02:26:04;;;;;;;26.53;14.97;;;8.10;95.20;;;;;;5082064;28;20488;-61
2023/04/18 02:28:31;;;;;;;20.20;11.93;;;7.90;95.20;;;;;;5071496;28;20482;-61
2023/04/18 02:30:59;;;;;;;20.07;12.07;;;7.90;95.10;;;;;;5053040;28;20493;-61
2023/04/18 02:33:28;;;;;;;20.03;12.17;;;7.90;95.30;;;;;;5079744;28;20477;-61
2023/04/18 02:35:54;;;;;;;29.93;16.00;;;7.90;95.40;;;;;;5076950;28;20584;-61
2023/04/18 02:38:21;;;;;;;23.30;14.03;;;7.80;95.30;;;;;;5078952;28;20565;-62
2023/04/18 02:40:48;;;;;;;27.13;13.00;;;7.70;95.20;;;;;;5083567;28;20824;-61
2023/04/18 02:43:14;;;;;;;22.67;13.70;;;7.70;95.40;;;;;;5094400;28;22522;-61
2023/04/18 02:45:41;;;;;;;28.37;14.63;;;7.60;95.50;;;;;;5098097;28;20966;-61
2023/04/18 02:48:08;;;;;;;20.63;10.87;;;7.60;95.50;;;;;;5093653;28;20853;-61
2023/04/18 02:50:36;;;;;;;20.57;12.73;;;7.60;95.30;;;;;;5073770;28;20544;-61
2023/04/18 02:53:02;;;;;;;23.00;13.43;;;7.50;95.20;;;;;;5088803;28;20469;-61
2023/04/18 02:55:29;;;;;;;24.53;14.20;;;7.40;95.10;;;;;;5062943;28;20775;-61
2023/04/18 02:57:56;;;;;;;22.83;13.60;;;7.30;95.20;;;;;;5092338;28;20477;-61
2023/04/18 03:00:23;;;;;;;21.60;13.60;;;7.30;95.30;;;;;;5072350;28;20489;-61
2023/04/18 03:02:49;;;;;;;21.00;12.20;;;7.30;95.20;;;;;;5087721;28;20636;-61
2023/04/18 03:05:16;;;;;;;30.03;16.30;;;7.30;95.30;;;;;;5096439;28;20821;-61
2023/04/18 03:07:44;;;;;;;25.70;13.63;;;7.20;95.10;;;;;;5076894;28;20475;-61
2023/04/18 03:10:11;;;;;;;19.30;12.80;;;7.20;95.20;;;;;;5075387;28;20486;-61
2023/04/18 03:12:38;;;;;;;21.03;13.03;;;7.20;95.20;;;;;;5085314;28;20494;-61
2023/04/18 03:15:05;;;;;;;19.60;13.10;;;7.10;95.00;;;;;;5080148;28;20830;-61
2023/04/18 03:17:32;;;;;;;24.37;12.83;;;7.10;95.40;;;;;;5075714;28;20495;-61
2023/04/18 03:19:59;;;;;;;24.80;16.10;;;7.00;95.30;;;;;;5074445;28;20477;-61
2023/04/18 03:22:26;;;;;;;25.20;15.20;;;6.90;95.20;;;;;;5085748;28;20473;-61
2023/04/18 03:24:54;;;;;;;29.63;14.63;;;6.90;95.40;;;;;;5093544;28;20475;-61
2023/04/18 03:27:20;;;;;;;30.73;13.60;;;6.90;95.50;;;;;;5054413;28;20478;-61
2023/04/18 03:29:47;;;;;;;21.70;13.47;;;6.90;95.50;;;;;;5078729;28;20551;-61
2023/04/18 03:32:14;;;;;;;26.87;15.50;;;6.90;95.60;;;;;;5075551;28;20846;-61
2023/04/18 03:34:41;;;;;;;24.87;14.50;;;6.80;95.60;;;;;;5074724;28;20546;-61
2023/04/18 03:37:07;;;;;;;29.53;15.87;;;6.80;95.70;;;;;;5084477;28;20478;-61
2023/04/18 03:39:34;;;;;;;26.60;14.27;;;6.90;95.80;;;;;;5076438;28;20486;-61
2023/04/18 03:42:02;;;;;;;22.57;14.80;;;6.90;95.70;;;;;;5069722;28;20466;-61
2023/04/18 03:44:29;;;;;;;23.03;14.17;;;6.90;95.60;;;;;;5077638;28;20474;-61
2023/04/18 03:46:56;;;;;;;24.03;16.33;;;6.90;95.60;;;;;;5069080;28;20481;-61
2023/04/18 03:49:22;;;;;;;21.90;13.70;;;6.90;95.50;;;;;;5045608;28;20481;-61
2023/04/18 03:51:49;;;;;;;24.17;16.23;;;6.80;95.40;;;;;;5063558;28;20588;-61
2023/04/18 03:54:16;;;;;;;25.50;16.20;;;6.80;95.50;;;;;;5064423;28;21002;-61
2023/04/18 03:56:43;;;;;;;26.60;17.43;;;6.80;95.70;;;;;;5061148;28;20487;-61
2023/04/18 03:59:11;;;;;;;29.60;15.07;;;6.80;95.60;;;;;;5061648;28;20486;-61
2023/04/18 04:01:38;;;;;;;20.70;14.57;;;6.80;95.60;;;;;;5057925;28;20895;-61
2023/04/18 04:04:05;;;;;;;21.33;14.57;;;6.80;95.50;;;;;;5045522;28;20538;-61
2023/04/18 04:06:32;;;;;;;23.90;15.17;;;6.70;95.50;;;;;;5082225;28;20548;-61
2023/04/18 04:08:58;;;;;;;23.43;14.53;;;6.70;95.50;;;;;;5065965;28;20482;-61
2023/04/18 04:11:25;;;;;;;27.67;17.00;;;6.70;95.50;;;;;;5069577;28;20490;-61
2023/04/18 04:13:52;;;;;;;30.13;15.63;;;6.70;95.60;;;;;;5047297;28;20474;-61
2023/04/18 04:16:20;;;;;;;28.33;16.97;;;6.70;95.70;;;;;;5055346;28;20946;-60
2023/04/18 04:18:47;;;;;;;23.90;15.03;;;6.80;95.60;;;;;;5063030;28;20489;-61
2023/04/18 04:21:14;;;;;;;30.80;16.73;;;6.70;95.60;;;;;;5046822;28;20484;-61
2023/04/18 04:23:41;;;;;;;24.83;15.67;;;6.70;95.70;;;;;;5087879;28;20469;-61
2023/04/18 04:26:08;;;;;;;24.47;15.33;;;6.70;95.70;;;;;;5085831;28;22085;-61
2023/04/18 04:28:35;;;;;;;28.93;17.27;;;6.70;95.80;;;;;;5069811;28;20887;-61
2023/04/18 04:31:04;;;;;;;28.07;16.73;;;6.70;96.20;;;;;;5070847;28;21058;-61
2023/04/18 04:33:33;;;;;;;27.87;16.57;;;6.80;96.50;;;;;;5074605;28;20494;-61
2023/04/18 04:36:00;;;;;;;27.80;17.53;;;6.80;96.70;;;;;;5076753;28;20540;-61
2023/04/18 04:38:29;;;;;;;26.73;16.97;;;7.00;96.80;;;;;;5079437;28;20587;-61
2023/04/18 04:40:56;;;;;;;24.00;15.87;;;7.00;96.70;;;;;;5096987;28;20561;-61
2023/04/18 04:43:23;;;;;;;27.30;17.87;;;7.10;96.80;;;;;;5084988;28;20481;-61
2023/04/18 04:45:50;;;;;;;30.37;19.07;;;7.20;96.70;;;;;;5060362;28;20487;-61
2023/04/18 04:48:17;;;;;;;31.67;17.83;;;7.30;96.80;;;;;;5070255;28;20813;-61
2023/04/18 04:50:52;;;;;;;28.90;17.40;;;7.30;96.90;;;;;;5056764;28;20485;-61
2023/04/18 04:53:19;;;;;;;33.20;17.80;;;7.40;96.90;;;;;;5065231;28;21087;-60
2023/04/18 04:55:46;;;;;;;33.00;18.73;;;7.50;96.90;;;;;;5059006;28;20477;-60
2023/04/18 04:58:12;;;;;;;29.93;17.70;;;7.50;96.70;;;;;;5060372;28;20552;-61
2023/04/18 05:00:39;;;;;;;32.90;16.60;;;7.60;96.90;;;;;;5062241;28;20777;-61
2023/04/18 05:03:06;;;;;;;24.10;16.20;;;7.70;96.90;;;;;;5076280;28;20473;-61
2023/04/18 05:05:33;;;;;;;25.30;16.60;;;7.70;96.80;;;;;;5061818;28;20821;-61
2023/04/18 05:08:01;;;;;;;30.30;16.87;;;7.80;96.80;;;;;;5073905;28;20846;-61
2023/04/18 05:10:30;;;;;;;23.10;15.47;;;7.80;96.70;;;;;;5070769;28;20486;-61
2023/04/18 05:12:56;;;;;;;26.33;16.50;;;7.90;96.60;;;;;;5071469;28;20475;-61
2023/04/18 05:15:23;;;;;;;28.87;16.77;;;8.00;96.60;;;;;;5075782;28;20478;-61
2023/04/18 05:17:50;;;;;;;33.37;16.80;;;8.10;96.60;;;;;;5061587;28;21117;-60
2023/04/18 05:20:17;;;;;;;34.53;19.00;;;8.20;96.50;;;;;;5045281;28;20896;-61
2023/04/18 05:22:43;;;;;;;35.50;18.23;;;8.30;96.50;;;;;;5084887;28;20826;-61
2023/04/18 05:25:12;;;;;;;36.37;20.20;;;8.40;96.50;;;;;;5074393;28;20505;-61
2023/04/18 05:27:38;;;;;;;32.10;17.50;;;8.40;96.30;;;;;;5055391;28;20505;-61
2023/04/18 05:30:06;;;;;;;32.30;17.63;;;8.50;96.20;;;;;;5062602;28;20497;-61
2023/04/18 05:32:33;;;;;;;34.40;17.43;;;8.50;96.00;;;;;;5082346;28;20826;-61
2023/04/18 05:35:57;;;;;;;43.93;20.70;;;8.50;95.90;;;;;;5094532;28;20474;-61
2023/04/18 05:39:21;;;;;;;34.53;17.30;;;8.50;95.90;;;;;;5079747;28;21009;-61
2023/04/18 05:42:45;;;;;;;35.00;18.03;;;8.50;96.00;;;;;;5059144;28;20753;-60
2023/04/18 05:45:16;;;;;;;45.37;20.10;;;9.50;96.60;;;;;;5060553;28;20485;-61
2023/04/18 05:47:43;;;;;;;39.17;18.90;;;8.50;96.30;;;;;;5050082;28;20483;-61
2023/04/18 05:50:10;;;;;;;47.90;22.73;;;8.60;96.50;;;;;;5065787;28;20981;-60
2023/04/18 05:52:37;;;;;;;34.50;15.40;;;8.70;96.40;;;;;;5090377;28;20749;-61
2023/04/18 05:55:04;;;;;;;39.73;17.80;;;8.70;96.10;;;;;;5055512;28;20513;-60
2023/04/18 05:57:31;;;;;;;34.47;17.20;;;8.60;96.50;;;;;;5065391;28;20471;-61
2023/04/18 05:59:57;;;;;;;43.97;19.47;;;8.80;96.50;;;;;;5067123;28;20470;-61
2023/04/18 06:02:25;;;;;;;36.30;15.30;;;8.90;96.30;;;;;;5063311;28;20495;-61
2023/04/18 06:04:52;;;;;;;34.53;17.80;;;8.90;96.50;;;;;;5060702;28;20500;-60
2023/04/18 06:07:20;;;;;;;33.17;16.13;;;9.00;96.60;;;;;;5047629;28;21085;-61
2023/04/18 06:09:48;;;;;;;32.20;16.70;;;9.00;96.30;;;;;;5059806;28;20508;-61
2023/04/18 06:12:15;;;;;;;44.50;22.60;;;9.10;96.50;;;;;;5065923;28;21075;-61
2023/04/18 06:14:41;;;;;;;38.70;21.23;;;9.10;96.40;;;;;;5044348;28;21062;-61
2023/04/18 06:17:11;;;;;;;34.97;20.40;;;9.20;96.60;;;;;;5062110;28;21089;-61
2023/04/18 06:19:39;;;;;;;33.90;19.13;;;9.20;96.60;;;;;;5055411;28;20488;-61
2023/04/18 06:22:06;;;;;;;33.37;18.17;;;9.20;96.40;;;;;;5048797;28;20970;-61
2023/04/18 06:24:36;;;;;;;29.60;17.60;;;9.30;96.30;;;;;;5066222;28;20474;-61
2023/04/18 06:27:03;;;;;;;38.33;21.17;;;9.30;96.30;;;;;;5088400;28;20970;-62
2023/04/18 06:29:32;;;;;;;28.03;16.87;;;9.30;96.10;;;;;;5090137;28;20504;-61
2023/04/18 06:31:58;;;;;;;31.70;17.87;;;9.40;96.40;;;;;;5040067;28;20574;-61
2023/04/18 06:34:25;;;;;;;32.07;19.17;;;9.40;96.20;;;;;;5061137;28;20479;-61
2023/04/18 06:36:53;;;;;;;28.90;18.63;;;9.40;96.20;;;;;;5053859;28;21176;-61
2023/04/18 06:39:20;;;;;;;32.33;18.13;;;9.50;96.00;;;;;;5056344;28;20504;-61
2023/04/18 06:41:48;;;;;;;41.30;21.97;;;9.50;96.30;;;;;;5074919;28;20601;-60
2023/04/18 06:44:14;;;;;;;29.43;17.80;;;9.50;95.80;;;;;;5077199;28;20483;-61
2023/04/18 06:46:41;;;;;;;39.47;17.50;;;9.50;95.90;;;;;;5076479;28;20482;-61
2023/04/18 06:49:08;;;;;;;25.10;17.43;;;9.50;96.00;;;;;;5047006;28;20493;-61
2023/04/18 06:51:34;;;;;;;26.77;15.47;;;9.50;95.80;;;;;;5094471;28;20720;-61
2023/04/18 06:54:03;;;;;;;30.13;15.80;;;9.60;96.10;;;;;;5057766;28;20571;-61
2023/04/18 06:56:29;;;;;;;25.57;16.10;;;9.60;95.60;;;;;;5066510;28;20493;-61
2023/04/18 06:58:56;;;;;;;41.07;18.73;;;9.60;95.90;;;;;;5070852;28;20474;-61
2023/04/18 07:01:23;;;;;;;25.53;14.77;;;9.80;95.70;;;;;;5072632;28;20481;-61
2023/04/18 07:03:49;;;;;;;22.77;13.83;;;9.90;95.60;;;;;;5084509;28;20486;-61
2023/04/18 07:06:16;;;;;;;29.87;15.20;;;9.80;95.30;;;;;;5044325;28;20482;-61
2023/04/18 07:08:43;;;;;;;21.43;12.37;;;9.90;95.70;;;;;;5074748;28;20483;-61
2023/04/18 07:11:12;;;;;;;25.00;15.77;;;9.90;95.30;;;;;;5082154;28;20466;-61
2023/04/18 07:13:38;;;;;;;32.43;17.27;;;10.00;95.40;;;;;;5065094;28;20623;-61
2023/04/18 07:16:06;;;;;;;26.63;14.13;;;9.90;95.50;;;;;;5062923;28;20471;-61
2023/04/18 07:18:33;;;;;;;24.73;15.33;;;9.90;95.30;;;;;;5067880;28;20827;-60
2023/04/18 07:21:00;;;;;;;28.63;17.60;;;10.00;94.80;;;;;;5079420;28;20488;-61
2023/04/18 07:23:27;;;;;;;29.07;17.73;;;10.10;94.80;;;;;;5086442;28;20480;-61
2023/04/18 07:25:54;;;;;;;27.93;16.93;;;;;;;;;;5079443;28;20500;-61
2023/04/18 07:28:22;;;;;;;24.43;15.80;;;10.30;95.20;;;;;;5091502;28;20489;-61
2023/04/18 07:30:49;;;;;;;27.53;13.10;;;10.40;94.70;;;;;;5055743;28;20488;-61
2023/04/18 07:33:15;;;;;;;24.40;15.73;;;10.50;95.10;;;;;;5060257;28;20558;-61
2023/04/18 07:35:44;;;;;;;22.33;13.47;;;10.50;94.20;;;;;;5065811;28;20499;-61
2023/04/18 07:38:12;;;;;;;32.53;16.03;;;10.60;94.60;;;;;;5059529;28;20481;-61
2023/04/18 07:40:38;;;;;;;23.53;13.43;;;10.80;94.30;;;;;;5062294;28;20486;-61
2023/04/18 07:43:05;;;;;;;20.73;12.60;;;10.80;94.20;;;;;;5068768;28;20501;-61
2023/04/18 07:45:34;;;;;;;27.17;15.00;;;10.80;94.00;;;;;;5055747;28;20482;-61
2023/04/18 07:48:01;;;;;;;22.77;13.73;;;10.80;93.90;;;;;;5096086;28;20564;-61
2023/04/18 07:50:28;;;;;;;25.77;14.80;;;10.90;94.00;;;;;;5079099;28;20497;-61
2023/04/18 07:52:54;;;;;;;27.30;12.90;;;11.10;94.40;;;;;;5082060;28;20481;-60
2023/04/18 07:55:21;;;;;;;19.13;10.33;;;11.20;94.20;;;;;;5078073;28;20999;-61
2023/04/18 07:57:49;;;;;;;28.53;12.73;;;11.40;93.80;;;;;;5070933;28;20568;-61
2023/04/18 08:00:16;;;;;;;33.83;13.03;;;11.50;94.00;;;;;;5071184;28;20470;-61
2023/04/18 08:02:45;;;;;;;32.13;12.67;;;11.60;93.50;;;;;;5058017;28;20525;-61
2023/04/18 08:05:12;;;;;;;35.73;14.33;;;;;;;;;;5083106;28;20478;-61
2023/04/18 08:07:38;;;;;;;19.77;11.10;;;11.50;93.60;;;;;;5078322;28;20655;-61
2023/04/18 08:10:06;;;;;;;30.27;14.90;;;11.50;93.40;;;;;;5054240;28;20486;-61
2023/04/18 08:12:35;;;;;;;36.77;14.13;;;;;;;;;;5085270;28;20481;-61
2023/04/18 08:15:02;;;;;;;30.70;12.83;;;11.50;93.50;;;;;;5065427;28;20482;-61
2023/04/18 08:17:29;;;;;;;28.40;11.40;;;11.50;93.20;;;;;;5067824;28;20485;-61
2023/04/18 08:19:58;;;;;;;45.47;14.57;;;11.40;93.60;;;;;;5073706;28;20466;-61
2023/04/18 08:22:24;;;;;;;32.57;14.10;;;11.40;93.70;;;;;;5092915;28;20479;-62
2023/04/18 08:24:51;;;;;;;46.67;15.77;;;11.40;93.60;;;;;;5070594;28;20482;-61
2023/04/18 08:27:18;;;;;;;93.10;21.43;;;11.30;93.50;;;;;;5067842;28;20485;-61
2023/04/18 08:29:45;;;;;;;38.30;12.77;;;11.30;93.50;;;;;;5075880;28;21022;-61
2023/04/18 08:32:12;;;;;;;55.87;16.00;;;;;;;;;;5077617;28;20922;-61
2023/04/18 08:34:39;;;;;;;50.70;12.50;;;11.40;93.90;;;;;;5087172;28;20481;-62
2023/04/18 08:37:07;;;;;;;49.17;18.97;;;11.40;93.80;;;;;;5091981;28;21135;-61
2023/04/18 08:39:34;;;;;;;49.83;16.93;;;;;;;;;;5075389;28;20480;-62
2023/04/18 08:42:02;;;;;;;35.23;15.20;;;11.40;93.90;;;;;;5084628;28;20578;-62
2023/04/18 08:44:29;;;;;;;30.67;14.10;;;11.40;93.90;;;;;;5069835;28;20508;-61
2023/04/18 08:46:56;;;;;;;38.43;14.90;;;11.40;93.90;;;;;;5072702;28;20914;-61
2023/04/18 08:49:24;;;;;;;40.80;15.83;;;11.40;93.80;;;;;;5049847;28;20880;-61
2023/04/18 08:51:52;;;;;;;21.30;11.03;;;11.50;94.40;;;;;;5073380;28;20517;-61
2023/04/18 08:54:21;;;;;;;32.37;15.63;;;11.50;94.30;;;;;;5056642;28;20495;-60
2023/04/18 08:57:04;;;;;;;64.87;14.53;;;11.40;94.30;;;;;;5047200;28;20882;-61
2023/04/18 08:59:31;;;;;;;19.53;12.77;;;11.30;93.60;;;;;;5055722;28;20823;-61
2023/04/18 09:02:00;;;;;;;27.07;14.03;;;11.30;94.20;;;;;;5042877;28;20547;-62
2023/04/18 09:04:35;;;;;;;19.57;11.03;;;11.30;94.20;;;;;;5061825;28;20587;-62
2023/04/18 09:07:02;;;;;;;18.87;12.83;;;11.30;94.30;;;;;;5034879;28;20858;-62
2023/04/18 09:09:41;;;;;;;23.10;11.30;;;11.30;94.20;;;;;;5061756;28;20478;-61
2023/04/18 09:12:10;;;;;;;24.10;13.70;;;11.20;94.30;;;;;;5072606;28;20466;-61
2023/04/18 09:14:41;;;;;;;32.37;12.57;;;11.20;94.10;;;;;;5070020;28;20478;-61
2023/04/18 09:17:08;;;;;;;16.77;10.87;;;11.20;94.00;;;;;;5062252;28;20486;-60
2023/04/18 09:19:35;;;;;;;17.63;10.20;;;11.20;94.10;;;;;;5042850;28;20890;-61
2023/04/18 09:22:03;;;;;;;22.00;11.47;;;11.20;94.00;;;;;;5053631;28;20890;-61
2023/04/18 09:24:33;;;;;;;19.60;11.50;;;11.20;94.60;;;;;;5079054;28;21075;-61
2023/04/18 09:27:02;;;;;;;15.30;10.57;;;11.20;94.10;;;;;;5063143;28;20479;-60
2023/04/18 09:29:45;;;;;;;19.20;9.57;;;11.10;94.00;;;;;;5035334;28;20483;-60
2023/04/18 09:32:23;;;;;;;23.40;14.60;;;11.10;94.00;;;;;;5067762;28;20504;-61
2023/04/18 09:34:53;;;;;;;21.43;13.73;;;11.10;94.40;;;;;;5037466;28;20873;-60
2023/04/18 09:37:20;;;;;;;16.60;12.27;;;11.10;94.70;;;;;;5083839;28;20481;-61
2023/04/18 09:39:47;;;;;;;51.00;23.43;;;11.00;94.40;;;;;;5059158;28;20566;-61
2023/04/18 09:42:15;;;;;;;20.73;13.90;;;11.10;94.20;;;;;;5069042;28;20762;-61
2023/04/18 09:44:59;;;;;;;18.30;11.50;;;10.90;94.30;;;;;;5048701;28;20470;-60
2023/04/18 09:47:27;;;;;;;20.57;13.30;;;10.80;94.50;;;;;;5074081;28;20509;-61
2023/04/18 09:49:54;;;;;;;24.43;13.10;;;10.80;94.60;;;;;;5053969;28;20483;-61
2023/04/18 09:52:22;;;;;;;35.00;17.97;;;10.80;94.90;;;;;;5077842;28;20485;-61
2023/04/18 09:54:54;;;;;;;28.60;16.07;;;10.90;94.90;;;;;;5057209;28;20587;-61
2023/04/18 09:57:27;;;;;;;23.50;14.63;;;12.40;95.50;;;;;;5070112;28;20494;-61
2023/04/18 10:00:09;;;;;;;31.90;15.40;;;11.10;95.00;;;;;;5037469;28;20542;-61
2023/04/18 10:02:46;;;;;;;25.97;16.33;;;11.10;94.70;;;;;;5055764;28;20493;-61
2023/04/18 10:05:14;;;;;;;32.27;18.00;;;11.40;95.70;;;;;;5056952;28;20486;-61
2023/04/18 10:07:42;;;;;;;28.33;16.20;;;;;;;;;;5092354;28;21004;-61
2023/04/18 10:10:09;;;;;;;30.00;15.00;;;11.80;95.30;;;;;;5086704;28;20473;-61
2023/04/18 10:12:38;;;;;;;13.93;10.60;;;11.90;95.40;;;;;;5093861;28;21064;-61
2023/04/18 10:15:07;;;;;;;22.03;13.77;;;12.00;94.80;;;;;;5072039;28;20727;-61
2023/04/18 10:17:42;;;;;;;22.20;14.50;;;12.20;94.70;;;;;;5076704;28;20490;-62
2023/04/18 10:20:15;;;;;;;25.50;16.20;;;12.30;94.40;;;;;;5070938;28;20577;-62
2023/04/18 10:22:41;;;;;;;31.17;17.30;;;12.60;95.00;;;;;;5071390;28;20476;-62
2023/04/18 10:25:08;;;;;;;31.07;15.87;;;12.90;94.20;;;;;;5076841;28;20525;-62
2023/04/18 10:27:57;;;;;;;20.67;14.03;;;13.00;94.10;;;;;;5077191;28;20474;-62
2023/04/18 10:30:52;;;;;;;34.73;19.23;;;13.20;94.60;;;;;;5070396;28;20586;-62
2023/04/18 10:33:37;;;;;;;25.87;16.53;;;13.40;93.90;;;;;;5067636;28;20896;-62
2023/04/18 10:36:14;;;;;;;34.07;18.37;;;13.30;93.30;;;;;;5066823;28;21171;-61
2023/04/18 10:38:46;;;;;;;32.60;17.37;;;13.20;93.70;;;;;;5056898;28;20562;-61
2023/04/18 10:41:21;;;;;;;27.00;17.87;;;13.30;93.50;;;;;;5066071;28;20489;-61
2023/04/18 10:44:23;;;;;;;33.43;17.63;;;13.20;93.30;;;;;;5085507;28;20457;-61
2023/04/18 10:47:20;;;;;;;30.27;19.10;;;13.20;94.20;;;;;;5085595;28;20993;-61
2023/04/18 10:49:56;;;;;;;25.73;16.60;;;13.10;93.50;;;;;;5028835;28;20880;-61
2023/04/18 10:52:22;;;;;;;28.60;17.30;;;13.00;93.20;;;;;;5082037;28;20564;-61
2023/04/18 10:54:54;;;;;;;30.47;17.27;;;12.90;92.90;;;;;;5088900;28;20489;-61
2023/04/18 10:57:21;;;;;;;33.67;21.10;;;13.00;93.30;;;;;;5057111;28;20491;-61
2023/04/18 10:59:51;;;;;;;31.30;15.70;;;13.00;93.30;;;;;;5057979;28;20563;-62
2023/04/18 11:02:25;;;;;;;28.57;17.63;;;13.00;93.60;;;;;;5057701;28;20517;-61
2023/04/18 11:04:54;;;;;;;25.93;15.33;;;12.90;93.40;;;;;;5044782;28;20498;-61
2023/04/18 11:07:32;;;;;;;26.57;15.70;;;12.80;93.30;;;;;;5075554;28;20482;-61
2023/04/18 11:09:58;;;;;;;23.87;15.47;;;12.70;93.50;;;;;;5030188;28;20490;-61
2023/04/18 11:12:30;;;;;;;24.93;16.50;;;12.70;93.70;;;;;;5063055;28;20525;-61
2023/04/18 11:14:58;;;;;;;25.63;16.40;;;12.70;94.10;;;;;;5051486;28;20589;-61
2023/04/18 11:17:27;;;;;;;19.67;12.67;;;12.60;93.70;;;;;;5036624;28;21066;-61
2023/04/18 11:20:00;;;;;;;26.20;16.40;;;12.60;93.90;;;;;;5045838;28;20479;-61
2023/04/18 11:22:27;;;;;;;31.10;19.60;;;12.60;93.90;;;;;;5064547;28;20486;-61
2023/04/18 11:24:58;;;;;;;32.03;17.97;;;12.70;94.50;;;;;;5051974;28;20476;-62
2023/04/18 11:27:25;;;;;;;22.50;16.00;;;12.80;94.10;;;;;;5042945;28;20490;-62
2023/04/18 11:29:53;;;;;;;17.70;10.53;;;12.80;94.30;;;;;;5038675;28;20551;-62
2023/04/18 11:32:22;;;;;;;30.20;15.57;;;12.70;94.00;;;;;;5039300;28;20658;-62
2023/04/18 11:34:51;;;;;;;18.90;11.80;;;12.80;94.30;;;;;;5073375;28;20482;-62
2023/04/18 11:37:18;;;;;;;29.93;16.40;;;12.80;94.50;;;;;;5057023;28;20873;-62
2023/04/18 11:39:45;;;;;;;21.00;13.67;;;12.80;94.40;;;;;;5059785;28;20830;-62
2023/04/18 11:42:12;;;;;;;24.13;16.00;;;12.80;93.90;;;;;;5051373;28;20975;-62
2023/04/18 11:44:42;;;;;;;28.53;15.50;;;;;;;;;;5059900;28;20495;-62
2023/04/18 11:47:23;;;;;;;23.20;15.77;;;13.00;94.40;;;;;;5064940;28;20792;-62
2023/04/18 11:49:56;;;;;;;22.63;15.00;;;13.00;93.70;;;;;;5064038;28;21013;-61
2023/04/18 11:52:23;;;;;;;19.53;12.10;;;13.00;94.10;;;;;;5033950;28;20930;-62
2023/04/18 11:54:49;;;;;;;31.90;18.40;;;13.10;94.10;;;;;;5067776;28;21032;-62
2023/04/18 11:57:21;;;;;;;24.10;16.73;;;13.10;94.00;;;;;;5052359;28;21053;-62
2023/04/18 11:59:50;;;;;;;25.50;15.63;;;13.20;93.90;;;;;;5046081;28;20483;-62
2023/04/18 12:02:16;;;;;;;29.73;18.13;;;13.30;94.20;;;;;;5076209;28;20483;-62
2023/04/18 12:04:52;;;;;;;25.83;16.70;;;13.40;93.90;;;;;;5023717;28;20485;-61
2023/04/18 12:07:33;;;;;;;26.87;18.00;;;13.50;93.80;;;;;;5051781;28;20600;-62
2023/04/18 12:09:59;;;;;;;23.20;16.07;;;13.40;93.80;;;;;;5055575;28;22021;-61
2023/04/18 12:12:26;;;;;;;28.77;18.80;;;13.50;93.80;;;;;;5068093;28;20486;-61
2023/04/18 12:14:59;;;;;;;31.80;20.80;;;13.60;93.70;;;;;;5035443;28;20470;-62
2023/04/18 12:17:26;;;;;;;39.77;22.37;;;13.80;93.80;;;;;;5045153;28;20465;-61
2023/04/18 12:19:54;;;;;;;27.00;17.33;;;13.90;93.80;;;;;;5052352;28;20799;-61
2023/04/18 12:22:37;;;;;;;33.60;20.80;;;14.10;93.70;;;;;;5061914;28;20819;-61
2023/04/18 12:25:20;;;;;;;27.37;16.57;;;14.10;93.60;;;;;;5043188;28;20481;-61
2023/04/18 12:27:58;;;;;;;29.97;18.53;;;14.10;93.90;;;;;;5068468;28;20486;-61
2023/04/18 12:30:27;;;;;;;27.50;17.37;;;14.10;93.70;;;;;;5041734;28;20482;-61
2023/04/18 12:32:55;;;;;;;37.83;19.13;;;14.20;93.50;;;;;;5057708;28;20916;-61
2023/04/18 12:35:24;;;;;;;28.47;17.20;;;14.30;93.60;;;;;;5055003;28;20490;-62
2023/04/18 12:37:52;;;;;;;28.27;18.63;;;14.30;93.90;;;;;;5074378;28;20471;-61
2023/04/18 12:40:20;;;;;;;29.70;19.57;;;14.40;94.20;;;;;;5055185;28;20475;-61
2023/04/18 12:42:47;;;;;;;23.60;13.57;;;14.40;93.60;;;;;;5060517;28;20487;-61
2023/04/18 12:45:15;;;;;;;26.23;16.10;;;14.30;93.50;;;;;;5062394;28;21018;-61